METAR Data
IDs: Format: Raw Decoded Include TAF

Data at: 1345 UTC 27 Nov 2021

EPRZ 271330Z 19004KT 9999 OVC014 04/01 Q0997